sensor_id;sensor_type;location;lat;lon;timestamp;pressure;altitude;pressure_sealevel;temperature;humidity
40650;BME280;26342;42.826;23.992;2023-06-14T00:00:30;95045.72;;;16.49;100.00
40650;BME280;26342;42.826;23.992;2023-06-14T00:02:56;95050.31;;;16.48;100.00
40650;BME280;26342;42.826;23.992;2023-06-14T00:05:22;95058.41;;;16.48;100.00
40650;BME280;26342;42.826;23.992;2023-06-14T00:07:48;95056.50;;;16.49;100.00
40650;BME280;26342;42.826;23.992;2023-06-14T00:10:14;95056.31;;;16.45;100.00
40650;BME280;26342;42.826;23.992;2023-06-14T00:12:40;95058.09;;;16.50;100.00
40650;BME280;26342;42.826;23.992;2023-06-14T00:15:07;95042.16;;;16.54;100.00
40650;BME280;26342;42.826;23.992;2023-06-14T00:17:35;95041.03;;;16.55;100.00
40650;BME280;26342;42.826;23.992;2023-06-14T00:20:03;95044.22;;;16.57;100.00
40650;BME280;26342;42.826;23.992;2023-06-14T00:22:31;95042.63;;;16.56;100.00
40650;BME280;26342;42.826;23.992;2023-06-14T00:24:57;95039.63;;;16.57;100.00
40650;BME280;26342;42.826;23.992;2023-06-14T00:27:22;95039.84;;;16.61;100.00
40650;BME280;26342;42.826;23.992;2023-06-14T00:29:47;95036.03;;;16.62;100.00
40650;BME280;26342;42.826;23.992;2023-06-14T00:32:13;95039.22;;;16.64;100.00
40650;BME280;26342;42.826;23.992;2023-06-14T00:34:38;95026.06;;;16.62;100.00
40650;BME280;26342;42.826;23.992;2023-06-14T00:37:04;95026.56;;;16.64;100.00
40650;BME280;26342;42.826;23.992;2023-06-14T00:39:29;95037.53;;;16.68;100.00
40650;BME280;26342;42.826;23.992;2023-06-14T00:41:55;95022.69;;;16.57;100.00
40650;BME280;26342;42.826;23.992;2023-06-14T00:44:20;95036.28;;;16.52;100.00
40650;BME280;26342;42.826;23.992;2023-06-14T00:46:47;95030.09;;;16.51;100.00
40650;BME280;26342;42.826;23.992;2023-06-14T00:49:14;95023.69;;;16.47;100.00
40650;BME280;26342;42.826;23.992;2023-06-14T00:51:41;95029.56;;;16.49;100.00
40650;BME280;26342;42.826;23.992;2023-06-14T00:54:06;95024.50;;;16.47;100.00
40650;BME280;26342;42.826;23.992;2023-06-14T00:56:32;95020.81;;;16.43;100.00
40650;BME280;26342;42.826;23.992;2023-06-14T00:58:58;95025.03;;;16.36;100.00
40650;BME280;26342;42.826;23.992;2023-06-14T01:01:24;95029.00;;;16.38;100.00
40650;BME280;26342;42.826;23.992;2023-06-14T01:03:49;95025.44;;;16.29;100.00
40650;BME280;26342;42.826;23.992;2023-06-14T01:06:40;95029.09;;;16.33;100.00
40650;BME280;26342;42.826;23.992;2023-06-14T01:09:18;95035.00;;;16.35;100.00
40650;BME280;26342;42.826;23.992;2023-06-14T01:14:28;95023.94;;;16.23;100.00
40650;BME280;26342;42.826;23.992;2023-06-14T01:16:56;95017.84;;;16.17;100.00
40650;BME280;26342;42.826;23.992;2023-06-14T01:19:23;95025.72;;;16.14;100.00
40650;BME280;26342;42.826;23.992;2023-06-14T01:21:50;95030.81;;;16.15;100.00
40650;BME280;26342;42.826;23.992;2023-06-14T01:24:16;95029.72;;;16.16;100.00
40650;BME280;26342;42.826;23.992;2023-06-14T01:26:45;95020.84;;;16.16;100.00
40650;BME280;26342;42.826;23.992;2023-06-14T01:29:10;95034.00;;;16.17;100.00
40650;BME280;26342;42.826;23.992;2023-06-14T01:31:36;95030.22;;;16.05;100.00
40650;BME280;26342;42.826;23.992;2023-06-14T01:34:07;95025.13;;;16.03;100.00
40650;BME280;26342;42.826;23.992;2023-06-14T01:36:36;95032.28;;;15.94;100.00
40650;BME280;26342;42.826;23.992;2023-06-14T01:39:03;95029.13;;;15.92;100.00
40650;BME280;26342;42.826;23.992;2023-06-14T01:41:30;95025.72;;;15.86;100.00
40650;BME280;26342;42.826;23.992;2023-06-14T01:43:58;95026.31;;;15.83;100.00
40650;BME280;26342;42.826;23.992;2023-06-14T01:46:24;95021.31;;;15.77;100.00
40650;BME280;26342;42.826;23.992;2023-06-14T01:48:50;95030.59;;;15.71;100.00
40650;BME280;26342;42.826;23.992;2023-06-14T01:51:16;95033.19;;;15.76;100.00
40650;BME280;26342;42.826;23.992;2023-06-14T01:53:41;95034.66;;;15.68;100.00
40650;BME280;26342;42.826;23.992;2023-06-14T01:56:07;95028.00;;;15.66;100.00
40650;BME280;26342;42.826;23.992;2023-06-14T01:58:32;95031.69;;;15.70;100.00
40650;BME280;26342;42.826;23.992;2023-06-14T02:00:58;95028.69;;;15.71;100.00
40650;BME280;26342;42.826;23.992;2023-06-14T02:03:25;95026.09;;;15.66;100.00
40650;BME280;26342;42.826;23.992;2023-06-14T02:05:51;95037.56;;;15.72;100.00
40650;BME280;26342;42.826;23.992;2023-06-14T02:08:17;95023.13;;;15.68;100.00
40650;BME280;26342;42.826;23.992;2023-06-14T02:10:43;95037.34;;;15.68;100.00
40650;BME280;26342;42.826;23.992;2023-06-14T02:13:08;95037.84;;;15.70;100.00
40650;BME280;26342;42.826;23.992;2023-06-14T02:15:34;95037.34;;;15.68;100.00
40650;BME280;26342;42.826;23.992;2023-06-14T02:18:03;95032.94;;;15.58;100.00
40650;BME280;26342;42.826;23.992;2023-06-14T02:20:29;95032.78;;;15.69;100.00
40650;BME280;26342;42.826;23.992;2023-06-14T02:22:55;95031.69;;;15.70;100.00
40650;BME280;26342;42.826;23.992;2023-06-14T02:25:20;95041.44;;;15.66;100.00
40650;BME280;26342;42.826;23.992;2023-06-14T02:27:46;95035.63;;;15.58;100.00
40650;BME280;26342;42.826;23.992;2023-06-14T02:30:11;95035.06;;;15.61;100.00
40650;BME280;26342;42.826;23.992;2023-06-14T02:32:37;95039.41;;;15.57;100.00
40650;BME280;26342;42.826;23.992;2023-06-14T02:35:03;95040.13;;;15.63;100.00
40650;BME280;26342;42.826;23.992;2023-06-14T02:37:29;95045.13;;;15.70;100.00
40650;BME280;26342;42.826;23.992;2023-06-14T02:39:56;95053.59;;;15.77;100.00
40650;BME280;26342;42.826;23.992;2023-06-14T02:42:21;95042.84;;;15.77;100.00
40650;BME280;26342;42.826;23.992;2023-06-14T02:44:47;95034.84;;;15.72;100.00
40650;BME280;26342;42.826;23.992;2023-06-14T02:47:18;95046.03;;;15.79;100.00
40650;BME280;26342;42.826;23.992;2023-06-14T02:49:44;95044.75;;;15.76;100.00
40650;BME280;26342;42.826;23.992;2023-06-14T02:52:11;95046.94;;;15.74;100.00
40650;BME280;26342;42.826;23.992;2023-06-14T02:54:37;95050.31;;;15.80;100.00
40650;BME280;26342;42.826;23.992;2023-06-14T02:57:02;95042.66;;;15.73;100.00
40650;BME280;26342;42.826;23.992;2023-06-14T02:59:28;95052.31;;;15.74;100.00
40650;BME280;26342;42.826;23.992;2023-06-14T03:01:53;95046.72;;;15.71;100.00
40650;BME280;26342;42.826;23.992;2023-06-14T03:04:19;95049.22;;;15.67;100.00
40650;BME280;26342;42.826;23.992;2023-06-14T03:06:44;95052.50;;;15.64;100.00
40650;BME280;26342;42.826;23.992;2023-06-14T03:09:15;95032.63;;;15.60;100.00
40650;BME280;26342;42.826;23.992;2023-06-14T03:11:41;95046.59;;;15.62;100.00
40650;BME280;26342;42.826;23.992;2023-06-14T03:14:06;95059.75;;;15.63;100.00
40650;BME280;26342;42.826;23.992;2023-06-14T03:16:33;95073.72;;;15.66;100.00
40650;BME280;26342;42.826;23.992;2023-06-14T03:18:59;95069.03;;;15.71;100.00
40650;BME280;26342;42.826;23.992;2023-06-14T03:21:25;95066.34;;;15.71;100.00
40650;BME280;26342;42.826;23.992;2023-06-14T03:23:51;95065.84;;;15.69;100.00
40650;BME280;26342;42.826;23.992;2023-06-14T03:26:18;95072.75;;;15.75;100.00
40650;BME280;26342;42.826;23.992;2023-06-14T03:28:44;95071.22;;;15.69;100.00
40650;BME280;26342;42.826;23.992;2023-06-14T03:31:11;95082.78;;;15.70;100.00
40650;BME280;26342;42.826;23.992;2023-06-14T03:33:36;95075.41;;;15.61;100.00
40650;BME280;26342;42.826;23.992;2023-06-14T03:36:02;95080.25;;;15.59;100.00
40650;BME280;26342;42.826;23.992;2023-06-14T03:38:28;95077.44;;;15.51;100.00
40650;BME280;26342;42.826;23.992;2023-06-14T03:40:53;95072.94;;;15.46;100.00
40650;BME280;26342;42.826;23.992;2023-06-14T03:43:18;95078.59;;;15.45;100.00
40650;BME280;26342;42.826;23.992;2023-06-14T03:45:44;95081.66;;;15.38;100.00
40650;BME280;26342;42.826;23.992;2023-06-14T03:48:10;95081.38;;;15.40;100.00
40650;BME280;26342;42.826;23.992;2023-06-14T03:50:36;95092.34;;;15.43;100.00
40650;BME280;26342;42.826;23.992;2023-06-14T03:53:03;95085.16;;;15.39;100.00
40650;BME280;26342;42.826;23.992;2023-06-14T03:55:29;95091.44;;;15.34;100.00
40650;BME280;26342;42.826;23.992;2023-06-14T03:57:56;95100.00;;;15.36;100.00
40650;BME280;26342;42.826;23.992;2023-06-14T04:00:22;95104.28;;;15.37;100.00
40650;BME280;26342;42.826;23.992;2023-06-14T04:02:48;95098.03;;;15.42;100.00
40650;BME280;26342;42.826;23.992;2023-06-14T04:05:14;95097.44;;;15.45;100.00
40650;BME280;26342;42.826;23.992;2023-06-14T04:07:42;95100.41;;;15.43;100.00
40650;BME280;26342;42.826;23.992;2023-06-14T04:10:13;95099.31;;;15.44;100.00
40650;BME280;26342;42.826;23.992;2023-06-14T04:12:39;95090.97;;;15.46;100.00
40650;BME280;26342;42.826;23.992;2023-06-14T04:15:05;95101.72;;;15.46;100.00
40650;BME280;26342;42.826;23.992;2023-06-14T04:17:32;95103.91;;;15.44;100.00
40650;BME280;26342;42.826;23.992;2023-06-14T04:20:01;95111.03;;;15.34;100.00
40650;BME280;26342;42.826;23.992;2023-06-14T04:22:26;95106.38;;;15.40;100.00
40650;BME280;26342;42.826;23.992;2023-06-14T04:24:56;95115.03;;;15.37;100.00
40650;BME280;26342;42.826;23.992;2023-06-14T04:27:25;95101.88;;;15.35;100.00
40650;BME280;26342;42.826;23.992;2023-06-14T04:29:54;95102.97;;;15.34;100.00
40650;BME280;26342;42.826;23.992;2023-06-14T04:32:28;95094.53;;;15.41;100.00
40650;BME280;26342;42.826;23.992;2023-06-14T04:34:58;95108.19;;;15.45;100.00
40650;BME280;26342;42.826;23.992;2023-06-14T04:37:24;95100.78;;;15.36;100.00
40650;BME280;26342;42.826;23.992;2023-06-14T04:39:50;95110.69;;;15.41;100.00
40650;BME280;26342;42.826;23.992;2023-06-14T04:42:17;95108.59;;;15.52;100.00
40650;BME280;26342;42.826;23.992;2023-06-14T04:44:46;95116.09;;;15.55;100.00
40650;BME280;26342;42.826;23.992;2023-06-14T04:47:12;95111.38;;;15.47;100.00
40650;BME280;26342;42.826;23.992;2023-06-14T04:49:39;95103.41;;;15.42;100.00
40650;BME280;26342;42.826;23.992;2023-06-14T04:52:06;95109.22;;;15.49;100.00
40650;BME280;26342;42.826;23.992;2023-06-14T04:54:32;95106.78;;;15.47;100.00
40650;BME280;26342;42.826;23.992;2023-06-14T04:56:59;95108.47;;;15.43;100.00
40650;BME280;26342;42.826;23.992;2023-06-14T04:59:24;95121.34;;;15.46;100.00
40650;BME280;26342;42.826;23.992;2023-06-14T05:01:50;95108.41;;;15.48;100.00
40650;BME280;26342;42.826;23.992;2023-06-14T05:04:16;95120.88;;;15.58;100.00
40650;BME280;26342;42.826;23.992;2023-06-14T05:06:43;95106.91;;;15.56;100.00
40650;BME280;26342;42.826;23.992;2023-06-14T05:09:13;95119.16;;;15.67;100.00
40650;BME280;26342;42.826;23.992;2023-06-14T05:11:40;95131.94;;;15.75;100.00
40650;BME280;26342;42.826;23.992;2023-06-14T05:14:07;95124.78;;;15.84;100.00
40650;BME280;26342;42.826;23.992;2023-06-14T05:16:33;95130.66;;;15.86;100.00
40650;BME280;26342;42.826;23.992;2023-06-14T05:18:58;95141.34;;;15.91;100.00
40650;BME280;26342;42.826;23.992;2023-06-14T05:21:24;95139.75;;;15.90;100.00
40650;BME280;26342;42.826;23.992;2023-06-14T05:23:50;95141.03;;;15.93;100.00
40650;BME280;26342;42.826;23.992;2023-06-14T05:26:16;95140.66;;;16.00;100.00
40650;BME280;26342;42.826;23.992;2023-06-14T05:28:41;95144.34;;;16.04;100.00
40650;BME280;26342;42.826;23.992;2023-06-14T05:31:07;95145.72;;;16.01;100.00
40650;BME280;26342;42.826;23.992;2023-06-14T05:33:32;95138.44;;;16.02;100.00
40650;BME280;26342;42.826;23.992;2023-06-14T05:35:58;95144.13;;;16.00;100.00
40650;BME280;26342;42.826;23.992;2023-06-14T05:38:23;95149.63;;;16.09;100.00
40650;BME280;26342;42.826;23.992;2023-06-14T05:40:48;95138.47;;;16.15;100.00
40650;BME280;26342;42.826;23.992;2023-06-14T05:43:14;95147.75;;;16.23;100.00
40650;BME280;26342;42.826;23.992;2023-06-14T05:45:39;95141.59;;;16.23;100.00
40650;BME280;26342;42.826;23.992;2023-06-14T05:48:05;95142.06;;;16.25;100.00
40650;BME280;26342;42.826;23.992;2023-06-14T05:50:30;95136.59;;;16.30;100.00
40650;BME280;26342;42.826;23.992;2023-06-14T05:52:56;95142.09;;;16.38;100.00
40650;BME280;26342;42.826;23.992;2023-06-14T05:55:21;95139.19;;;16.48;100.00
40650;BME280;26342;42.826;23.992;2023-06-14T05:57:47;95148.97;;;16.58;100.00
40650;BME280;26342;42.826;23.992;2023-06-14T06:00:13;95138.91;;;16.64;100.00
40650;BME280;26342;42.826;23.992;2023-06-14T06:02:44;95138.72;;;16.74;100.00
40650;BME280;26342;42.826;23.992;2023-06-14T06:05:10;95136.63;;;16.85;100.00
40650;BME280;26342;42.826;23.992;2023-06-14T06:07:36;95139.41;;;16.93;100.00
40650;BME280;26342;42.826;23.992;2023-06-14T06:10:03;95142.50;;;17.00;100.00
40650;BME280;26342;42.826;23.992;2023-06-14T06:12:28;95135.06;;;17.06;100.00
40650;BME280;26342;42.826;23.992;2023-06-14T06:14:54;95134.78;;;17.08;100.00
40650;BME280;26342;42.826;23.992;2023-06-14T06:17:20;95149.63;;;17.19;100.00
40650;BME280;26342;42.826;23.992;2023-06-14T06:19:45;95150.13;;;17.21;100.00
40650;BME280;26342;42.826;23.992;2023-06-14T06:22:11;95144.94;;;17.24;100.00
40650;BME280;26342;42.826;23.992;2023-06-14T06:24:36;95150.88;;;17.35;100.00
40650;BME280;26342;42.826;23.992;2023-06-14T06:27:02;95155.75;;;17.47;100.00
40650;BME280;26342;42.826;23.992;2023-06-14T06:29:27;95158.13;;;17.48;100.00
40650;BME280;26342;42.826;23.992;2023-06-14T06:31:52;95151.47;;;17.46;100.00
40650;BME280;26342;42.826;23.992;2023-06-14T06:47:34;95162.13;;;18.49;100.00
40650;BME280;26342;42.826;23.992;2023-06-14T06:50:00;95163.06;;;18.53;100.00
40650;BME280;26342;42.826;23.992;2023-06-14T06:52:25;95159.69;;;18.39;100.00
40650;BME280;26342;42.826;23.992;2023-06-14T06:54:51;95160.75;;;18.29;100.00
40650;BME280;26342;42.826;23.992;2023-06-14T06:57:20;95160.63;;;18.34;100.00
40650;BME280;26342;42.826;23.992;2023-06-14T06:59:46;95166.50;;;18.36;100.00
40650;BME280;26342;42.826;23.992;2023-06-14T07:02:11;95163.69;;;18.41;100.00
40650;BME280;26342;42.826;23.992;2023-06-14T07:04:36;95167.97;;;18.42;100.00
40650;BME280;26342;42.826;23.992;2023-06-14T07:07:02;95171.47;;;18.43;100.00
40650;BME280;26342;42.826;23.992;2023-06-14T07:09:27;95165.06;;;18.39;100.00
40650;BME280;26342;42.826;23.992;2023-06-14T07:11:53;95169.25;;;18.45;100.00
40650;BME280;26342;42.826;23.992;2023-06-14T07:14:18;95166.38;;;18.41;100.00
40650;BME280;26342;42.826;23.992;2023-06-14T07:16:44;95161.25;;;18.40;100.00
40650;BME280;26342;42.826;23.992;2023-06-14T07:19:10;95165.28;;;18.42;100.00
40650;BME280;26342;42.826;23.992;2023-06-14T07:21:35;95171.03;;;18.50;100.00
40650;BME280;26342;42.826;23.992;2023-06-14T07:24:06;95167.81;;;18.48;100.00
40650;BME280;26342;42.826;23.992;2023-06-14T07:26:33;95167.66;;;18.44;100.00
40650;BME280;26342;42.826;23.992;2023-06-14T07:28:58;95153.38;;;18.52;100.00
40650;BME280;26342;42.826;23.992;2023-06-14T07:31:24;95167.13;;;18.64;100.00
40650;BME280;26342;42.826;23.992;2023-06-14T07:33:49;95162.50;;;18.65;100.00
40650;BME280;26342;42.826;23.992;2023-06-14T07:36:15;95161.78;;;18.73;100.00
40650;BME280;26342;42.826;23.992;2023-06-14T07:38:40;95159.22;;;18.77;100.00
40650;BME280;26342;42.826;23.992;2023-06-14T07:41:06;95161.94;;;18.85;100.00
40650;BME280;26342;42.826;23.992;2023-06-14T07:43:31;95161.16;;;18.93;100.00
40650;BME280;26342;42.826;23.992;2023-06-14T07:45:57;95152.75;;;18.95;100.00
40650;BME280;26342;42.826;23.992;2023-06-14T07:48:22;95154.19;;;19.01;100.00
40650;BME280;26342;42.826;23.992;2023-06-14T07:50:48;95160.25;;;18.98;100.00
40650;BME280;26342;42.826;23.992;2023-06-14T07:53:13;95164.53;;;18.99;100.00
40650;BME280;26342;42.826;23.992;2023-06-14T07:55:39;95165.19;;;18.96;100.00
40650;BME280;26342;42.826;23.992;2023-06-14T07:58:06;95162.16;;;18.98;100.00
40650;BME280;26342;42.826;23.992;2023-06-14T08:00:31;95167.38;;;18.94;100.00
40650;BME280;26342;42.826;23.992;2023-06-14T08:02:57;95177.91;;;19.04;100.00
40650;BME280;26342;42.826;23.992;2023-06-14T08:05:24;95173.13;;;19.10;100.00
40650;BME280;26342;42.826;23.992;2023-06-14T08:07:51;95167.28;;;19.16;100.00
40650;BME280;26342;42.826;23.992;2023-06-14T08:10:17;95182.38;;;19.17;100.00
40650;BME280;26342;42.826;23.992;2023-06-14T08:12:42;95186.50;;;19.06;100.00
40650;BME280;26342;42.826;23.992;2023-06-14T08:15:08;95178.72;;;19.05;100.00
40650;BME280;26342;42.826;23.992;2023-06-14T08:17:34;95189.69;;;19.17;100.00
40650;BME280;26342;42.826;23.992;2023-06-14T08:19:59;95194.31;;;19.08;100.00
40650;BME280;26342;42.826;23.992;2023-06-14T08:22:25;95199.56;;;19.13;100.00
40650;BME280;26342;42.826;23.992;2023-06-14T08:24:51;95189.88;;;19.12;100.00
40650;BME280;26342;42.826;23.992;2023-06-14T08:27:18;95193.81;;;19.06;100.00
40650;BME280;26342;42.826;23.992;2023-06-14T08:29:43;95198.94;;;19.16;100.00
40650;BME280;26342;42.826;23.992;2023-06-14T08:32:09;95180.63;;;19.13;100.00
40650;BME280;26342;42.826;23.992;2023-06-14T08:34:35;95186.53;;;19.23;100.00
40650;BME280;26342;42.826;23.992;2023-06-14T08:37:01;95203.09;;;19.39;100.00
40650;BME280;26342;42.826;23.992;2023-06-14T08:39:26;95193.56;;;19.42;100.00
40650;BME280;26342;42.826;23.992;2023-06-14T08:41:52;95205.81;;;19.48;100.00
40650;BME280;26342;42.826;23.992;2023-06-14T08:44:18;95204.91;;;19.61;100.00
40650;BME280;26342;42.826;23.992;2023-06-14T08:46:43;95203.66;;;19.67;100.00
40650;BME280;26342;42.826;23.992;2023-06-14T08:49:12;95200.78;;;19.72;100.00
40650;BME280;26342;42.826;23.992;2023-06-14T08:51:38;95206.34;;;19.76;100.00
40650;BME280;26342;42.826;23.992;2023-06-14T08:54:06;95207.28;;;19.89;100.00
40650;BME280;26342;42.826;23.992;2023-06-14T08:56:32;95205.06;;;20.08;100.00
40650;BME280;26342;42.826;23.992;2023-06-14T08:58:59;95208.41;;;20.22;100.00
40650;BME280;26342;42.826;23.992;2023-06-14T09:01:30;95190.69;;;20.25;100.00
40650;BME280;26342;42.826;23.992;2023-06-14T09:03:56;95197.06;;;20.20;100.00
40650;BME280;26342;42.826;23.992;2023-06-14T09:06:23;95201.66;;;20.28;100.00
40650;BME280;26342;42.826;23.992;2023-06-14T09:08:50;95197.34;;;20.36;100.00
40650;BME280;26342;42.826;23.992;2023-06-14T09:11:17;95195.09;;;20.55;100.00
40650;BME280;26342;42.826;23.992;2023-06-14T09:13:44;95198.47;;;20.90;100.00
40650;BME280;26342;42.826;23.992;2023-06-14T09:16:10;95191.03;;;21.08;100.00
40650;BME280;26342;42.826;23.992;2023-06-14T09:18:40;95179.94;;;21.22;100.00
40650;BME280;26342;42.826;23.992;2023-06-14T09:21:12;95181.53;;;21.53;100.00
40650;BME280;26342;42.826;23.992;2023-06-14T09:23:39;95190.25;;;21.79;100.00
40650;BME280;26342;42.826;23.992;2023-06-14T09:26:16;95188.22;;;21.97;100.00
40650;BME280;26342;42.826;23.992;2023-06-14T09:28:43;95182.50;;;22.11;100.00
40650;BME280;26342;42.826;23.992;2023-06-14T09:31:10;95187.66;;;22.24;100.00
40650;BME280;26342;42.826;23.992;2023-06-14T09:33:36;95194.38;;;22.39;100.00
40650;BME280;26342;42.826;23.992;2023-06-14T09:36:02;95185.56;;;22.54;100.00
40650;BME280;26342;42.826;23.992;2023-06-14T09:38:27;95180.47;;;22.65;100.00
40650;BME280;26342;42.826;23.992;2023-06-14T09:40:56;95175.63;;;22.71;100.00
40650;BME280;26342;42.826;23.992;2023-06-14T09:43:22;95181.16;;;22.74;100.00
40650;BME280;26342;42.826;23.992;2023-06-14T09:45:48;95180.09;;;22.88;100.00
40650;BME280;26342;42.826;23.992;2023-06-14T09:48:15;95172.47;;;23.05;100.00
40650;BME280;26342;42.826;23.992;2023-06-14T09:50:45;95162.97;;;23.11;100.00
40650;BME280;26342;42.826;23.992;2023-06-14T09:53:11;95170.56;;;23.18;100.00
40650;BME280;26342;42.826;23.992;2023-06-14T09:55:38;95155.13;;;23.10;100.00
40650;BME280;26342;42.826;23.992;2023-06-14T09:58:07;95172.94;;;23.20;100.00
40650;BME280;26342;42.826;23.992;2023-06-14T10:00:33;95171.00;;;23.32;100.00
40650;BME280;26342;42.826;23.992;2023-06-14T10:03:13;95168.50;;;23.39;100.00
40650;BME280;26342;42.826;23.992;2023-06-14T10:05:42;95166.88;;;23.63;100.00
40650;BME280;26342;42.826;23.992;2023-06-14T10:08:09;95170.47;;;23.79;100.00
40650;BME280;26342;42.826;23.992;2023-06-14T10:10:35;95163.88;;;23.80;100.00
40650;BME280;26342;42.826;23.992;2023-06-14T10:13:03;95138.91;;;23.78;100.00
40650;BME280;26342;42.826;23.992;2023-06-14T10:15:38;95154.22;;;23.83;100.00
40650;BME280;26342;42.826;23.992;2023-06-14T10:18:24;95149.97;;;23.98;100.00
40650;BME280;26342;42.826;23.992;2023-06-14T10:23:30;95151.97;;;24.29;100.00
40650;BME280;26342;42.826;23.992;2023-06-14T10:25:58;95148.84;;;24.42;100.00
40650;BME280;26342;42.826;23.992;2023-06-14T10:28:25;95144.94;;;24.28;100.00
40650;BME280;26342;42.826;23.992;2023-06-14T10:31:11;95152.28;;;24.11;100.00
40650;BME280;26342;42.826;23.992;2023-06-14T10:33:56;95152.63;;;24.10;100.00
40650;BME280;26342;42.826;23.992;2023-06-14T10:39:06;95150.28;;;24.24;100.00
40650;BME280;26342;42.826;23.992;2023-06-14T10:41:37;95151.53;;;24.27;100.00
40650;BME280;26342;42.826;23.992;2023-06-14T10:46:38;95149.41;;;24.20;100.00
40650;BME280;26342;42.826;23.992;2023-06-14T10:49:04;95146.25;;;24.18;100.00
40650;BME280;26342;42.826;23.992;2023-06-14T10:51:58;95143.06;;;24.32;100.00
40650;BME280;26342;42.826;23.992;2023-06-14T10:54:23;95132.94;;;24.44;100.00
40650;BME280;26342;42.826;23.992;2023-06-14T10:56:52;95145.69;;;24.56;100.00
40650;BME280;26342;42.826;23.992;2023-06-14T10:59:18;95144.03;;;24.23;100.00
40650;BME280;26342;42.826;23.992;2023-06-14T11:04:20;95137.09;;;24.26;100.00
40650;BME280;26342;42.826;23.992;2023-06-14T11:06:48;95134.53;;;24.17;100.00
40650;BME280;26342;42.826;23.992;2023-06-14T11:12:15;95126.00;;;24.19;100.00
40650;BME280;26342;42.826;23.992;2023-06-14T11:14:45;95123.06;;;23.96;100.00
40650;BME280;26342;42.826;23.992;2023-06-14T11:17:12;95117.28;;;23.85;100.00
40650;BME280;26342;42.826;23.992;2023-06-14T11:19:37;95121.00;;;23.93;100.00
40650;BME280;26342;42.826;23.992;2023-06-14T11:22:03;95120.53;;;24.03;100.00
40650;BME280;26342;42.826;23.992;2023-06-14T11:24:28;95113.03;;;24.00;100.00
40650;BME280;26342;42.826;23.992;2023-06-14T11:26:55;95121.50;;;23.83;100.00
40650;BME280;26342;42.826;23.992;2023-06-14T11:29:21;95111.53;;;23.87;100.00
40650;BME280;26342;42.826;23.992;2023-06-14T11:31:47;95123.13;;;24.00;100.00
40650;BME280;26342;42.826;23.992;2023-06-14T11:34:12;95105.03;;;24.07;100.00
40650;BME280;26342;42.826;23.992;2023-06-14T11:36:39;95117.13;;;24.22;100.00
40650;BME280;26342;42.826;23.992;2023-06-14T11:39:06;95115.34;;;24.14;100.00
40650;BME280;26342;42.826;23.992;2023-06-14T11:41:40;95114.56;;;24.13;100.00
40650;BME280;26342;42.826;23.992;2023-06-14T11:44:06;95113.03;;;24.00;100.00
40650;BME280;26342;42.826;23.992;2023-06-14T11:46:32;95091.78;;;24.06;100.00
40650;BME280;26342;42.826;23.992;2023-06-14T11:48:58;95108.69;;;24.27;100.00
40650;BME280;26342;42.826;23.992;2023-06-14T11:51:24;95103.78;;;24.33;100.00
40650;BME280;26342;42.826;23.992;2023-06-14T11:53:49;95101.75;;;24.30;100.00
40650;BME280;26342;42.826;23.992;2023-06-14T11:56:15;95100.00;;;24.37;100.00
40650;BME280;26342;42.826;23.992;2023-06-14T11:58:43;95098.56;;;24.28;100.00
40650;BME280;26342;42.826;23.992;2023-06-14T12:01:08;95104.81;;;24.12;100.00
40650;BME280;26342;42.826;23.992;2023-06-14T12:03:34;95105.31;;;24.02;100.00
40650;BME280;26342;42.826;23.992;2023-06-14T12:06:08;95103.44;;;23.90;100.00
40650;BME280;26342;42.826;23.992;2023-06-14T12:08:37;95099.81;;;23.86;100.00
40650;BME280;26342;42.826;23.992;2023-06-14T12:11:10;95097.00;;;23.83;100.00
40650;BME280;26342;42.826;23.992;2023-06-14T12:13:38;95091.50;;;23.67;100.00
40650;BME280;26342;42.826;23.992;2023-06-14T12:16:04;95094.34;;;23.58;100.00
40650;BME280;26342;42.826;23.992;2023-06-14T12:18:34;95095.13;;;23.59;100.00
40650;BME280;26342;42.826;23.992;2023-06-14T12:21:00;95084.09;;;23.39;100.00
40650;BME280;26342;42.826;23.992;2023-06-14T12:23:48;95081.97;;;23.21;100.00
40650;BME280;26342;42.826;23.992;2023-06-14T12:26:18;95088.19;;;23.33;100.00
40650;BME280;26342;42.826;23.992;2023-06-14T12:28:47;95093.19;;;23.59;100.00
40650;BME280;26342;42.826;23.992;2023-06-14T12:31:14;95095.22;;;23.75;100.00
40650;BME280;26342;42.826;23.992;2023-06-14T12:33:40;95096.75;;;23.88;100.00
40650;BME280;26342;42.826;23.992;2023-06-14T12:36:07;95090.53;;;24.03;100.00
40650;BME280;26342;42.826;23.992;2023-06-14T12:38:33;95088.50;;;24.00;100.00
40650;BME280;26342;42.826;23.992;2023-06-14T12:40:59;95078.44;;;23.73;100.00
40650;BME280;26342;42.826;23.992;2023-06-14T12:43:24;95073.25;;;23.55;100.00
40650;BME280;26342;42.826;23.992;2023-06-14T12:45:50;95092.19;;;23.52;100.00
40650;BME280;26342;42.826;23.992;2023-06-14T12:48:16;95078.28;;;23.41;100.00
40650;BME280;26342;42.826;23.992;2023-06-14T12:50:42;95073.78;;;23.33;100.00
40650;BME280;26342;42.826;23.992;2023-06-14T12:53:08;95074.28;;;23.23;100.00
40650;BME280;26342;42.826;23.992;2023-06-14T12:55:33;95062.59;;;23.10;100.00
40650;BME280;26342;42.826;23.992;2023-06-14T12:57:59;95055.25;;;22.98;100.00
40650;BME280;26342;42.826;23.992;2023-06-14T13:00:24;95059.75;;;23.06;100.00
40650;BME280;26342;42.826;23.992;2023-06-14T13:02:52;95052.75;;;23.05;100.00
40650;BME280;26342;42.826;23.992;2023-06-14T13:05:18;95054.00;;;23.08;100.00
40650;BME280;26342;42.826;23.992;2023-06-14T13:07:44;95054.50;;;23.26;100.00